Time;durP1;ratioP1;P1;durP2;ratioP2;P2;SDS_P1;SDS_P2;PMS_P1;PMS_P2;Temp;Humidity;BMP_temperature;BMP_pressure;BME280_temperature;BME280_humidity;BME280_pressure;Samples;Min_cycle;Max_cycle;Signal;HPM_P1;HPM_P2
2023/06/26 00:01:31;;;;;;;10.93;9.90;;;22.40;99.90;;;;;;5010780;28;20324;-58
2023/06/26 00:04:00;;;;;;;10.77;9.80;;;22.40;99.90;;;;;;5011504;28;20229;-57
2023/06/26 00:06:28;;;;;;;10.83;9.83;;;22.40;99.90;;;;;;5011011;28;20229;-58
2023/06/26 00:08:58;;;;;;;9.90;9.10;;;22.30;99.90;;;;;;5011578;28;20229;-58
2023/06/26 00:11:27;;;;;;;12.07;10.07;;;22.40;99.90;;;;;;5009738;28;20271;-57
2023/06/26 00:13:55;;;;;;;10.90;9.87;;;22.30;99.90;;;;;;5026774;28;20221;-58
2023/06/26 00:16:24;;;;;;;9.67;8.87;;;22.30;99.90;;;;;;5011820;28;20221;-58
2023/06/26 00:18:53;;;;;;;9.83;9.03;;;22.20;99.90;;;;;;5013992;28;20749;-58
2023/06/26 00:21:21;;;;;;;11.10;10.10;;;22.30;99.90;;;;;;5014771;28;20217;-58
2023/06/26 00:23:49;;;;;;;11.30;10.40;;;22.20;99.90;;;;;;5016939;28;20756;-57
2023/06/26 00:26:17;;;;;;;10.23;9.33;;;22.20;99.90;;;;;;5012433;28;20581;-58
2023/06/26 00:28:45;;;;;;;10.33;9.40;;;22.20;99.90;;;;;;5012355;28;20229;-57
2023/06/26 00:31:13;;;;;;;9.70;8.90;;;22.20;99.90;;;;;;5014319;28;20712;-58
2023/06/26 00:33:43;;;;;;;9.67;8.87;;;22.20;99.90;;;;;;5014774;28;20651;-57
2023/06/26 00:36:11;;;;;;;9.93;9.03;;;22.10;99.90;;;;;;5015138;28;20227;-58
2023/06/26 00:38:39;;;;;;;9.57;8.67;;;22.10;99.90;;;;;;5015008;28;20316;-57
2023/06/26 00:41:12;;;;;;;9.10;8.27;;;22.10;99.90;;;;;;5010997;28;20220;-57
2023/06/26 00:43:40;;;;;;;9.10;8.30;;;22.10;99.90;;;;;;5014640;28;20743;-54
2023/06/26 00:46:13;;;;;;;9.90;9.10;;;22.10;99.90;;;;;;5014941;28;20219;-58
2023/06/26 00:48:44;;;;;;;10.13;9.20;;;22.10;99.90;;;;;;5013308;28;20224;-57
2023/06/26 00:51:13;;;;;;;9.50;8.60;;;22.10;99.90;;;;;;5027418;28;20337;-57
2023/06/26 00:53:42;;;;;;;10.10;9.10;;;22.00;99.90;;;;;;5013203;28;20567;-57
2023/06/26 00:56:12;;;;;;;9.87;8.97;;;22.00;99.90;;;;;;5011479;28;20226;-57
2023/06/26 00:58:40;;;;;;;10.90;10.00;;;22.00;99.90;;;;;;5013134;28;20735;-57
2023/06/26 01:01:14;;;;;;;10.50;9.60;;;22.00;99.90;;;;;;5012443;28;20252;-58
2023/06/26 01:03:44;;;;;;;10.87;9.97;;;21.90;99.90;;;;;;5014329;28;20229;-57
2023/06/26 01:06:15;;;;;;;11.50;10.40;;;21.90;99.90;;;;;;5014576;28;20361;-58
2023/06/26 01:08:44;;;;;;;10.50;9.60;;;21.90;99.90;;;;;;5011937;28;20777;-57
2023/06/26 01:11:13;;;;;;;9.57;8.77;;;21.80;99.90;;;;;;5012114;28;20233;-58
2023/06/26 01:13:44;;;;;;;10.43;9.37;;;21.80;99.90;;;;;;5013564;28;20260;-57
2023/06/26 01:16:13;;;;;;;10.43;9.53;;;21.80;99.90;;;;;;5013034;28;20229;-57
2023/06/26 01:18:45;;;;;;;11.73;10.53;;;21.80;99.90;;;;;;5012466;28;20237;-58
2023/06/26 01:21:15;;;;;;;10.07;9.27;;;21.80;99.90;;;;;;5014282;28;20244;-58
2023/06/26 01:23:57;;;;;;;10.67;9.77;;;21.80;99.90;;;;;;5015685;28;20762;-57
2023/06/26 01:26:29;;;;;;;9.47;8.67;;;21.80;99.90;;;;;;5012156;28;20225;-58
2023/06/26 01:29:00;;;;;;;9.93;9.13;;;21.80;99.90;;;;;;5012788;28;20267;-57
2023/06/26 01:31:30;;;;;;;9.77;8.80;;;21.80;99.90;;;;;;5012683;28;20320;-58
2023/06/26 01:34:00;;;;;;;10.47;9.57;;;21.80;99.90;;;;;;5011023;28;20221;-57
2023/06/26 01:36:28;;;;;;;10.37;9.37;;;21.70;99.90;;;;;;5011305;28;20231;-58
2023/06/26 01:38:56;;;;;;;10.80;9.87;;;21.70;99.90;;;;;;5013883;28;20246;-58
2023/06/26 01:41:25;;;;;;;10.63;9.63;;;21.70;99.90;;;;;;5011924;28;20316;-57
2023/06/26 01:44:08;;;;;;;10.40;9.40;;;21.60;99.90;;;;;;5013800;28;20249;-57
2023/06/26 01:46:41;;;;;;;11.33;10.33;;;21.60;99.90;;;;;;5013604;28;20240;-58
2023/06/26 01:49:16;;;;;;;9.60;8.80;;;21.60;99.90;;;;;;5028890;28;20276;-58
2023/06/26 01:51:52;;;;;;;10.63;9.53;;;21.60;99.90;;;;;;5011789;28;20612;-57
2023/06/26 01:54:24;;;;;;;9.87;9.07;;;21.60;99.90;;;;;;5014645;28;20736;-57
2023/06/26 01:56:54;;;;;;;10.47;9.57;;;21.60;99.90;;;;;;5011258;28;20684;-57
2023/06/26 01:59:26;;;;;;;9.93;9.07;;;21.60;99.90;;;;;;5011295;28;20662;-57
2023/06/26 02:01:55;;;;;;;10.80;9.80;;;21.50;99.90;;;;;;5012470;28;20328;-56
2023/06/26 02:04:23;;;;;;;10.30;9.40;;;21.60;99.90;;;;;;5013343;28;20213;-57
2023/06/26 02:06:51;;;;;;;10.53;9.53;;;21.50;99.90;;;;;;5012099;28;20312;-58
2023/06/26 02:09:19;;;;;;;9.70;8.83;;;21.50;99.90;;;;;;5013367;28;20700;-58
2023/06/26 02:11:47;;;;;;;11.23;10.13;;;21.50;99.90;;;;;;5012924;28;20225;-57
2023/06/26 02:14:15;;;;;;;10.77;9.87;;;21.40;99.90;;;;;;5012800;28;20251;-58
2023/06/26 02:16:45;;;;;;;10.87;9.97;;;21.40;99.90;;;;;;5028071;28;20217;-57
2023/06/26 02:19:21;;;;;;;9.73;8.93;;;21.40;99.90;;;;;;5012935;28;20228;-58
2023/06/26 02:21:49;;;;;;;10.17;9.17;;;21.40;99.90;;;;;;5013034;28;20244;-58
2023/06/26 02:24:18;;;;;;;10.20;9.20;;;21.50;99.90;;;;;;5013982;28;20237;-58
2023/06/26 02:26:46;;;;;;;10.90;10.00;;;21.40;99.90;;;;;;5012601;28;20684;-58
2023/06/26 02:29:14;;;;;;;10.60;9.70;;;21.40;99.90;;;;;;5010096;28;20727;-57
2023/06/26 02:31:42;;;;;;;10.60;9.07;;;21.40;99.90;;;;;;5012111;28;20291;-58
2023/06/26 02:34:12;;;;;;;10.70;9.70;;;21.30;99.90;;;;;;5010632;28;20719;-58
2023/06/26 02:36:40;;;;;;;9.97;9.07;;;21.30;99.90;;;;;;5012733;28;20299;-57
2023/06/26 02:39:08;;;;;;;10.17;9.30;;;21.30;99.90;;;;;;5022616;28;20321;-57
2023/06/26 02:41:36;;;;;;;10.10;9.27;;;21.30;99.90;;;;;;5010398;28;20221;-58
2023/06/26 02:44:05;;;;;;;11.00;10.00;;;21.20;99.90;;;;;;5008637;28;20704;-57
2023/06/26 02:46:33;;;;;;;9.93;9.03;;;21.30;99.90;;;;;;5009778;28;20229;-57
2023/06/26 02:49:01;;;;;;;10.60;9.70;;;21.20;99.90;;;;;;5012156;28;20685;-58
2023/06/26 02:51:32;;;;;;;10.70;9.80;;;21.20;99.90;;;;;;5011070;28;20234;-57
2023/06/26 02:54:03;;;;;;;10.57;9.67;;;21.10;99.90;;;;;;5026690;28;20240;-56
2023/06/26 02:56:32;;;;;;;10.53;9.53;;;21.10;99.90;;;;;;5025751;28;20635;-58
2023/06/26 02:59:00;;;;;;;10.47;9.57;;;21.10;99.90;;;;;;5023079;28;20233;-57
2023/06/26 03:01:29;;;;;;;10.10;9.17;;;21.10;99.90;;;;;;5024821;28;20216;-57
2023/06/26 03:03:57;;;;;;;10.47;9.60;;;21.10;99.90;;;;;;5012374;28;20228;-57
2023/06/26 03:06:25;;;;;;;10.10;9.20;;;21.10;99.90;;;;;;5012091;28;20223;-58
2023/06/26 03:08:55;;;;;;;9.47;8.63;;;21.10;99.90;;;;;;5010821;28;20256;-58
2023/06/26 03:11:23;;;;;;;10.03;9.23;;;21.10;99.90;;;;;;5012197;28;20252;-58
2023/06/26 03:13:52;;;;;;;9.60;8.70;;;21.10;99.90;;;;;;5009167;28;20244;-58
2023/06/26 03:16:20;;;;;;;9.67;8.87;;;21.10;99.90;;;;;;5012132;28;20220;-58
2023/06/26 03:18:48;;;;;;;9.47;8.63;;;21.00;99.90;;;;;;5025696;28;20225;-57
2023/06/26 03:21:18;;;;;;;10.10;9.07;;;21.00;99.90;;;;;;5010588;28;20267;-56
2023/06/26 03:23:47;;;;;;;9.47;8.67;;;21.00;99.90;;;;;;5026266;28;20248;-58
2023/06/26 03:26:16;;;;;;;9.47;8.60;;;21.00;99.90;;;;;;5014474;28;20715;-57
2023/06/26 03:28:46;;;;;;;9.80;8.90;;;21.00;99.90;;;;;;5022219;28;20592;-57
2023/06/26 03:31:14;;;;;;;9.70;8.90;;;21.00;99.90;;;;;;5010037;28;20224;-57
2023/06/26 03:33:42;;;;;;;9.53;8.67;;;21.00;99.90;;;;;;5011824;28;20218;-58
2023/06/26 03:36:10;;;;;;;10.40;9.27;;;21.00;99.90;;;;;;5010679;28;20228;-57
2023/06/26 03:38:38;;;;;;;9.63;8.70;;;21.00;99.90;;;;;;5010255;28;20263;-57
2023/06/26 03:41:07;;;;;;;9.13;8.30;;;21.10;99.90;;;;;;5010554;28;20359;-57
2023/06/26 03:43:36;;;;;;;9.13;8.43;;;21.10;99.90;;;;;;5008856;28;20232;-58
2023/06/26 03:46:18;;;;;;;8.87;8.17;;;21.10;99.90;;;;;;5010653;28;20303;-58
2023/06/26 03:48:47;;;;;;;10.10;9.13;;;21.20;99.90;;;;;;5010019;28;20225;-56
2023/06/26 03:51:16;;;;;;;9.93;9.03;;;21.20;99.90;;;;;;5010380;28;20775;-57
2023/06/26 03:53:44;;;;;;;9.70;8.90;;;21.20;99.90;;;;;;5012349;28;20228;-58
2023/06/26 03:56:13;;;;;;;9.97;9.07;;;21.30;99.90;;;;;;5013371;28;20244;-57
2023/06/26 03:58:44;;;;;;;9.90;9.00;;;21.40;99.90;;;;;;5011481;28;20695;-58
2023/06/26 04:01:12;;;;;;;9.70;8.90;;;21.40;99.90;;;;;;5023482;28;20707;-58
2023/06/26 04:03:41;;;;;;;9.97;9.07;;;21.40;99.90;;;;;;5023843;28;20221;-58
2023/06/26 04:06:11;;;;;;;9.60;8.70;;;21.40;99.90;;;;;;5028222;28;20228;-57
2023/06/26 04:08:39;;;;;;;9.60;8.70;;;21.50;99.90;;;;;;5028457;28;20774;-57
2023/06/26 04:11:08;;;;;;;10.10;9.13;;;21.50;99.90;;;;;;5026934;28;20227;-57
2023/06/26 04:13:36;;;;;;;9.93;8.97;;;21.60;99.90;;;;;;5023778;28;20707;-57
2023/06/26 04:16:06;;;;;;;9.67;8.87;;;21.70;99.90;;;;;;5030244;28;20654;-58
2023/06/26 04:18:34;;;;;;;9.80;8.90;;;21.70;99.90;;;;;;5030066;28;20588;-57
2023/06/26 04:21:08;;;;;;;10.70;8.53;;;21.90;99.90;;;;;;5030572;28;20235;-58
2023/06/26 04:23:36;;;;;;;8.97;8.27;;;21.90;99.90;;;;;;5025461;28;20722;-57
2023/06/26 04:26:05;;;;;;;8.73;8.03;;;22.00;99.90;;;;;;5025369;28;20307;-58
2023/06/26 04:28:34;;;;;;;8.63;7.87;;;22.00;99.90;;;;;;5042717;28;20224;-58
2023/06/26 04:31:03;;;;;;;9.57;8.67;;;22.10;99.90;;;;;;5027101;28;20239;-57
2023/06/26 04:33:33;;;;;;;9.33;8.43;;;22.20;99.90;;;;;;5027993;28;20232;-57
2023/06/26 04:36:03;;;;;;;9.57;8.77;;;22.20;99.90;;;;;;5018319;28;20323;-58
2023/06/26 04:38:32;;;;;;;9.97;9.07;;;22.30;99.90;;;;;;5014917;28;20760;-57
2023/06/26 04:41:01;;;;;;;9.03;8.13;;;22.40;99.90;;;;;;5015072;28;20256;-58
2023/06/26 04:43:29;;;;;;;10.97;8.37;;;22.30;99.90;;;;;;5012232;28;20229;-57
2023/06/26 04:45:57;;;;;;;8.97;8.17;;;22.50;99.90;;;;;;5015054;28;20279;-58
2023/06/26 04:48:27;;;;;;;9.20;8.30;;;22.50;99.90;;;;;;5011997;28;20228;-58
2023/06/26 04:50:58;;;;;;;9.10;8.30;;;22.60;99.90;;;;;;5014078;28;20319;-58
2023/06/26 04:53:27;;;;;;;8.57;7.80;;;22.80;99.90;;;;;;5010753;28;20237;-57
2023/06/26 04:55:55;;;;;;;8.77;7.77;;;23.00;99.90;;;;;;5024395;28;20282;-58
2023/06/26 04:58:24;;;;;;;8.70;7.73;;;23.10;99.90;;;;;;5012876;28;20220;-58
2023/06/26 05:00:52;;;;;;;8.30;7.50;;;23.10;99.90;;;;;;5015492;28;20320;-58
2023/06/26 05:03:20;;;;;;;8.37;7.57;;;23.20;99.90;;;;;;5015768;28;20222;-57
2023/06/26 05:05:49;;;;;;;8.10;7.40;;;23.50;99.90;;;;;;5012531;28;20235;-58
2023/06/26 05:08:21;;;;;;;7.97;7.27;;;23.60;99.90;;;;;;5021746;28;20712;-58
2023/06/26 05:10:50;;;;;;;8.83;8.13;;;23.70;99.90;;;;;;5022656;28;20226;-58
2023/06/26 05:13:19;;;;;;;8.07;7.30;;;23.70;99.90;;;;;;5012425;28;20226;-58
2023/06/26 05:15:47;;;;;;;8.10;7.40;;;24.00;99.90;;;;;;5012891;28;20241;-58
2023/06/26 05:18:15;;;;;;;8.57;7.73;;;24.10;99.90;;;;;;5014133;28;20689;-58
2023/06/26 05:20:44;;;;;;;8.07;7.37;;;24.20;99.90;;;;;;5013828;28;20559;-58
2023/06/26 05:23:13;;;;;;;8.13;7.33;;;24.30;99.90;;;;;;5012031;28;20238;-58
2023/06/26 05:25:43;;;;;;;8.43;7.73;;;24.30;99.90;;;;;;5008446;28;20229;-58
2023/06/26 05:28:13;;;;;;;8.97;8.17;;;24.20;99.90;;;;;;5012608;28;20225;-58
2023/06/26 05:30:41;;;;;;;8.03;7.33;;;24.40;99.90;;;;;;5011344;28;20712;-58
2023/06/26 05:33:12;;;;;;;7.50;6.83;;;24.70;99.90;;;;;;5015741;28;20757;-58
2023/06/26 05:35:41;;;;;;;7.80;7.10;;;24.90;99.90;;;;;;5017455;28;20630;-58
2023/06/26 05:38:10;;;;;;;7.87;7.17;;;25.00;99.90;;;;;;5017621;28;20228;-58
2023/06/26 05:40:40;;;;;;;8.37;7.27;;;25.10;99.90;;;;;;5017426;28;20238;-58
2023/06/26 05:43:10;;;;;;;8.77;7.93;;;25.20;99.90;;;;;;5012550;28;20240;-58
2023/06/26 05:45:39;;;;;;;7.57;6.87;;;25.10;99.90;;;;;;5013243;28;20302;-58
2023/06/26 05:48:07;;;;;;;7.80;7.10;;;25.20;99.90;;;;;;5013645;28;20229;-58
2023/06/26 05:50:36;;;;;;;10.83;7.50;;;25.20;99.90;;;;;;5011273;28;20690;-59
2023/06/26 05:53:05;;;;;;;7.80;7.10;;;25.20;99.90;;;;;;5013453;28;20333;-58
2023/06/26 05:55:34;;;;;;;7.73;7.03;;;25.20;99.90;;;;;;5013262;28;20633;-58
2023/06/26 05:58:03;;;;;;;7.93;7.23;;;25.40;99.90;;;;;;5012787;28;20687;-58
2023/06/26 06:00:33;;;;;;;8.73;7.90;;;25.50;99.90;;;;;;5012026;28;20722;-61
2023/06/26 06:03:01;;;;;;;7.77;6.90;;;25.60;99.90;;;;;;5013292;28;20224;-60
2023/06/26 06:05:29;;;;;;;7.30;6.60;;;25.80;99.90;;;;;;5012685;28;20235;-58
2023/06/26 06:07:57;;;;;;;7.37;6.70;;;26.00;99.90;;;;;;5012247;28;20230;-58
2023/06/26 06:10:26;;;;;;;6.67;6.07;;;26.10;99.90;;;;;;5013216;28;20715;-59
2023/06/26 06:12:54;;;;;;;7.87;7.17;;;26.20;99.90;;;;;;5013529;28;20271;-58
2023/06/26 06:15:22;;;;;;;7.47;6.77;;;26.40;99.90;;;;;;5017976;28;20277;-58
2023/06/26 06:17:52;;;;;;;7.67;6.97;;;26.40;99.90;;;;;;5021295;28;20303;-59
2023/06/26 06:20:21;;;;;;;7.33;6.73;;;26.40;99.90;;;;;;5014373;28;20251;-58
2023/06/26 06:22:49;;;;;;;7.47;6.53;;;26.60;99.90;;;;;;5007888;28;20228;-58
2023/06/26 06:25:17;;;;;;;8.60;7.72;;;26.80;99.90;;;;;;5003306;28;20439;-59
2023/06/26 06:27:45;;;;;;;7.67;6.97;;;26.20;99.90;;;;;;5004693;28;20252;-62
2023/06/26 06:30:14;;;;;;;7.43;6.77;;;25.90;99.90;;;;;;5001869;28;20599;-60
2023/06/26 06:32:42;;;;;;;8.37;7.43;;;26.10;99.90;;;;;;5001285;28;20711;-59
2023/06/26 06:35:11;;;;;;;9.43;7.37;;;26.20;99.90;;;;;;5002463;28;20236;-59
2023/06/26 06:37:40;;;;;;;7.67;6.97;;;26.50;99.90;;;;;;5002746;28;20278;-59
2023/06/26 06:40:10;;;;;;;8.80;7.10;;;26.80;99.90;;;;;;5001864;28;20303;-59
2023/06/26 06:42:38;;;;;;;7.83;7.03;;;27.00;99.90;;;;;;4998445;28;20673;-59
2023/06/26 06:45:07;;;;;;;7.10;6.40;;;26.90;99.90;;;;;;5003424;28;20220;-59
2023/06/26 06:47:35;;;;;;;7.80;7.00;;;27.10;99.90;;;;;;5001701;28;20235;-59
2023/06/26 06:50:07;;;;;;;7.97;7.27;;;27.40;99.90;;;;;;5001705;28;20224;-59
2023/06/26 06:52:40;;;;;;;7.77;7.07;;;27.60;99.90;;;;;;5000662;28;20714;-59
2023/06/26 06:55:09;;;;;;;7.27;6.57;;;27.80;99.90;;;;;;5003533;28;20680;-59
2023/06/26 06:57:38;;;;;;;6.67;6.07;;;27.90;99.90;;;;;;5001313;28;20241;-59
2023/06/26 07:00:08;;;;;;;7.23;6.53;;;28.10;99.90;;;;;;5003123;28;20739;-59
2023/06/26 07:02:37;;;;;;;9.13;7.10;;;28.30;99.90;;;;;;5002694;28;20232;-60
2023/06/26 07:05:05;;;;;;;6.90;6.30;;;27.90;99.90;;;;;;5001770;28;20233;-60
2023/06/26 07:07:35;;;;;;;7.37;6.77;;;28.20;99.90;;;;;;5001378;28;20220;-60
2023/06/26 07:10:06;;;;;;;7.43;6.73;;;28.10;99.90;;;;;;5001542;28;20243;-59
2023/06/26 07:12:35;;;;;;;7.50;6.80;;;28.40;99.90;;;;;;4999495;28;20286;-60
2023/06/26 07:15:05;;;;;;;7.20;6.60;;;28.50;99.90;;;;;;5003411;28;20220;-60
2023/06/26 07:17:33;;;;;;;7.07;6.47;;;28.80;99.90;;;;;;5002670;28;20267;-59
2023/06/26 07:20:05;;;;;;;7.27;6.57;;;28.90;99.90;;;;;;5001837;28;20575;-56
2023/06/26 07:22:33;;;;;;;7.20;6.43;;;29.20;99.90;;;;;;5000697;28;20584;-59
2023/06/26 07:25:01;;;;;;;7.70;6.47;;;29.10;99.90;;;;;;5002144;28;21147;-59
2023/06/26 07:27:31;;;;;;;7.33;6.63;;;28.90;99.90;;;;;;5002725;28;20225;-59
2023/06/26 07:29:59;;;;;;;8.13;6.90;;;28.80;99.90;;;;;;5001054;28;20225;-59
2023/06/26 07:32:27;;;;;;;7.37;6.67;;;29.10;99.90;;;;;;4999199;28;20810;-59
2023/06/26 07:34:55;;;;;;;7.80;7.10;;;29.30;99.90;;;;;;5005057;28;20621;-59
2023/06/26 07:37:23;;;;;;;8.57;7.77;;;29.20;99.90;;;;;;5001589;28;20283;-59
2023/06/26 07:39:51;;;;;;;8.43;6.60;;;29.20;99.90;;;;;;5001488;28;20604;-59
2023/06/26 07:42:19;;;;;;;8.33;7.50;;;29.20;99.90;;;;;;5000367;28;20225;-59
2023/06/26 07:44:49;;;;;;;8.13;7.33;;;29.50;99.90;;;;;;5000558;28;20221;-60
2023/06/26 07:47:17;;;;;;;10.83;7.40;;;29.60;99.90;;;;;;5003809;28;20225;-59
2023/06/26 07:49:45;;;;;;;7.50;6.80;;;29.80;99.90;;;;;;5004733;28;20283;-59
2023/06/26 07:52:14;;;;;;;8.00;7.23;;;30.10;99.90;;;;;;5002542;28;20229;-60
2023/06/26 07:54:43;;;;;;;9.63;7.20;;;30.10;99.90;;;;;;5002348;28;20291;-59
2023/06/26 07:57:11;;;;;;;8.40;7.30;;;30.10;99.90;;;;;;5001563;28;20708;-59
2023/06/26 07:59:39;;;;;;;8.20;7.50;;;30.00;99.90;;;;;;5001510;28;20307;-59
2023/06/26 08:02:09;;;;;;;8.43;7.63;;;29.60;99.90;;;;;;5013624;28;20260;-59
2023/06/26 08:04:37;;;;;;;7.57;6.93;;;29.50;99.90;;;;;;5002212;28;20224;-60
2023/06/26 08:07:06;;;;;;;8.40;7.10;;;29.90;99.90;;;;;;5002052;28;20939;-60
2023/06/26 08:09:34;;;;;;;7.87;7.07;;;30.40;99.90;;;;;;5002377;28;20236;-60
2023/06/26 08:12:03;;;;;;;8.37;7.57;;;30.70;99.90;;;;;;5000944;28;20602;-60
2023/06/26 08:14:31;;;;;;;10.33;8.10;;;30.80;99.90;;;;;;5001443;28;20332;-61
2023/06/26 08:17:00;;;;;;;9.37;8.10;;;30.80;99.90;;;;;;5001746;28;21152;-60
2023/06/26 08:19:29;;;;;;;10.07;8.03;;;30.80;99.90;;;;;;5002794;28;20812;-60
2023/06/26 08:21:57;;;;;;;12.00;8.80;;;31.10;99.90;;;;;;4999788;28;20659;-60
2023/06/26 08:24:25;;;;;;;9.87;8.43;;;31.10;99.90;;;;;;5003097;28;20237;-59
2023/06/26 08:26:53;;;;;;;10.23;8.23;;;31.30;99.90;;;;;;5001163;28;20231;-60
2023/06/26 08:29:21;;;;;;;8.90;7.97;;;31.10;99.90;;;;;;5003527;28;20225;-59
2023/06/26 08:31:49;;;;;;;10.73;8.90;;;30.70;99.90;;;;;;5000015;28;20697;-59
2023/06/26 08:34:17;;;;;;;10.57;9.17;;;30.50;99.90;;;;;;5002719;28;20232;-59
2023/06/26 08:36:47;;;;;;;8.77;7.90;;;30.40;99.90;;;;;;5000788;28;20587;-59
2023/06/26 08:39:15;;;;;;;11.47;8.00;;;30.30;99.90;;;;;;5003916;28;20233;-59
2023/06/26 08:41:43;;;;;;;11.37;8.07;;;30.10;99.90;;;;;;5003670;28;20236;-59
2023/06/26 08:44:11;;;;;;;12.40;8.03;;;29.90;99.90;;;;;;5004038;28;20222;-59
2023/06/26 08:46:40;;;;;;;12.73;8.70;;;29.60;99.90;;;;;;5003519;28;20789;-59
2023/06/26 08:49:15;;;;;;;10.80;7.87;;;29.20;99.90;;;;;;5003172;28;20221;-59
2023/06/26 08:51:51;;;;;;;11.97;8.43;;;28.90;99.90;;;;;;5003492;28;20236;-59
2023/06/26 08:54:28;;;;;;;8.87;7.97;;;28.80;99.90;;;;;;5003115;28;20229;-59
2023/06/26 08:56:58;;;;;;;9.30;8.40;;;28.60;99.90;;;;;;5004444;28;20237;-58
2023/06/26 08:59:26;;;;;;;9.17;7.83;;;28.50;99.90;;;;;;5005396;28;20596;-59
2023/06/26 09:01:54;;;;;;;10.17;8.90;;;28.90;99.90;;;;;;5001945;28;20626;-58
2023/06/26 09:04:22;;;;;;;11.07;9.80;;;29.50;99.90;;;;;;5003319;28;20248;-59
2023/06/26 09:06:52;;;;;;;12.47;10.23;;;29.60;99.90;;;;;;5005136;28;20735;-59
2023/06/26 09:09:20;;;;;;;11.73;9.43;;;29.20;99.90;;;;;;5004503;28;20312;-58
2023/06/26 09:11:48;;;;;;;11.53;10.33;;;29.00;99.90;;;;;;5002616;28;20222;-59
2023/06/26 09:14:16;;;;;;;12.87;11.57;;;28.40;99.90;;;;;;5005432;28;20222;-58
2023/06/26 09:16:44;;;;;;;11.70;10.47;;;28.00;99.90;;;;;;5004888;28;20718;-58
2023/06/26 09:19:13;;;;;;;11.67;10.43;;;27.60;99.90;;;;;;5006382;28;20226;-59
2023/06/26 09:21:42;;;;;;;14.67;11.33;;;27.40;99.90;;;;;;5019776;28;21015;-59
2023/06/26 09:24:11;;;;;;;12.07;10.83;;;27.10;99.90;;;;;;5004141;28;20252;-59
2023/06/26 09:26:42;;;;;;;10.90;9.87;;;26.80;99.90;;;;;;5005669;28;20236;-59
2023/06/26 09:29:11;;;;;;;11.23;9.80;;;26.60;99.90;;;;;;5005872;28;20236;-59
2023/06/26 09:31:39;;;;;;;13.10;8.67;;;26.30;99.90;;;;;;5000511;28;20251;-59
2023/06/26 09:34:10;;;;;;;13.70;7.33;;;25.80;99.90;;;;;;5003716;28;20233;-59
2023/06/26 09:36:38;;;;;;;15.93;6.70;;;25.30;99.90;;;;;;5004822;28;20236;-57
2023/06/26 09:39:10;;;;;;;7.37;6.07;;;24.60;99.90;;;;;;5002781;28;20279;-59
2023/06/26 09:41:44;;;;;;;11.00;5.83;;;24.30;99.90;;;;;;5001350;28;20233;-59
2023/06/26 09:44:14;;;;;;;11.13;5.20;;;24.10;99.90;;;;;;5004095;28;20237;-58
2023/06/26 09:46:46;;;;;;;8.87;4.77;;;23.90;99.90;;;;;;5003859;28;20725;-58
2023/06/26 09:49:14;;;;;;;6.33;4.77;;;23.90;99.90;;;;;;5002104;28;20307;-58
2023/06/26 09:51:43;;;;;;;5.27;4.50;;;24.00;99.90;;;;;;4999548;28;20237;-59
2023/06/26 09:54:11;;;;;;;4.20;3.80;;;24.00;99.90;;;;;;5002778;28;20243;-59
2023/06/26 09:56:40;;;;;;;4.87;4.10;;;24.00;99.90;;;;;;5003706;28;20232;-58
2023/06/26 09:59:09;;;;;;;4.87;4.00;;;23.90;99.90;;;;;;5003621;28;20759;-58
2023/06/26 10:01:42;;;;;;;4.60;3.67;;;23.80;99.90;;;;;;5000316;28;20247;-58
2023/06/26 10:04:10;;;;;;;4.13;3.73;;;23.80;99.90;;;;;;5002167;28;20725;-58
2023/06/26 10:06:42;;;;;;;4.10;3.70;;;23.90;99.90;;;;;;5002124;28;20315;-58
2023/06/26 10:09:11;;;;;;;6.30;3.70;;;24.10;99.90;;;;;;5001620;28;20236;-58
2023/06/26 10:11:46;;;;;;;6.53;4.03;;;24.40;99.90;;;;;;5000575;28;20611;-58
2023/06/26 10:14:16;;;;;;;7.10;5.50;;;24.80;99.90;;;;;;5002218;28;20798;-58
2023/06/26 10:16:47;;;;;;;6.50;5.80;;;25.00;99.90;;;;;;5002265;28;20220;-58
2023/06/26 10:19:18;;;;;;;5.83;5.20;;;25.10;99.90;;;;;;5005050;28;20584;-58
2023/06/26 10:21:47;;;;;;;8.97;6.80;;;25.70;99.90;;;;;;5000514;28;20224;-59
2023/06/26 10:24:15;;;;;;;8.67;6.17;;;26.20;99.90;;;;;;5004040;28;20238;-59
2023/06/26 10:26:46;;;;;;;8.37;6.23;;;26.20;99.90;;;;;;5004734;28;20597;-59
2023/06/26 10:29:18;;;;;;;10.50;6.00;;;25.70;99.90;;;;;;5002750;28;20231;-59
2023/06/26 10:31:53;;;;;;;9.30;6.07;;;25.90;99.90;;;;;;4999877;28;20355;-59
2023/06/26 10:34:22;;;;;;;7.10;4.87;;;26.60;99.90;;;;;;5003415;28;20251;-59
2023/06/26 10:37:00;;;;;;;12.50;5.30;;;27.10;99.90;;;;;;5004221;28;20251;-58
2023/06/26 10:39:28;;;;;;;10.47;4.67;;;27.40;99.90;;;;;;5002067;28;20232;-59
2023/06/26 10:42:09;;;;;;;8.93;4.60;;;28.20;99.90;;;;;;5000257;28;20782;-59
2023/06/26 10:44:46;;;;;;;8.93;4.13;;;28.60;99.90;;;;;;5002454;28;20862;-59
2023/06/26 10:47:30;;;;;;;7.97;4.33;;;27.80;99.90;;;;;;5002002;28;20226;-58
2023/06/26 10:50:17;;;;;;;8.27;3.50;;;27.20;99.90;;;;;;5001440;28;20229;-58
2023/06/26 10:53:13;;;;;;;6.90;3.17;;;26.70;99.90;;;;;;5000714;28;20798;-59
2023/06/26 10:55:49;;;;;;;7.03;3.00;;;25.60;99.90;;;;;;4998254;28;20233;-59
2023/06/26 10:58:31;;;;;;;6.17;2.57;;;25.60;99.90;;;;;;5001116;28;20307;-59
2023/06/26 11:01:21;;;;;;;4.80;2.33;;;25.70;99.90;;;;;;5000793;28;20248;-59
2023/06/26 11:04:02;;;;;;;6.37;2.53;;;26.60;99.90;;;;;;5001300;28;20229;-59
2023/06/26 11:06:31;;;;;;;9.27;2.57;;;26.90;99.90;;;;;;5002341;28;20227;-59
2023/06/26 11:09:01;;;;;;;6.63;2.47;;;27.20;99.90;;;;;;5001769;28;20236;-58
2023/06/26 11:12:04;;;;;;;4.90;2.10;;;27.40;99.90;;;;;;4998973;28;20286;-59
2023/06/26 11:14:34;;;;;;;6.50;2.20;;;27.10;99.90;;;;;;5001247;28;20916;-59
2023/06/26 11:17:07;;;;;;;7.37;2.53;;;27.60;99.90;;;;;;5001244;28;20727;-59
2023/06/26 11:19:35;;;;;;;5.30;2.10;;;28.30;99.90;;;;;;5000958;28;20236;-59
2023/06/26 11:22:05;;;;;;;7.17;2.20;;;27.80;99.90;;;;;;4999883;28;20644;-59
2023/06/26 11:24:33;;;;;;;4.73;2.20;;;27.30;99.90;;;;;;5000865;28;20641;-59
2023/06/26 11:27:03;;;;;;;5.77;2.10;;;26.90;99.90;;;;;;5001254;28;20228;-59
2023/06/26 11:29:33;;;;;;;6.23;2.20;;;26.30;99.90;;;;;;4999940;28;20227;-59
2023/06/26 11:32:05;;;;;;;5.07;2.07;;;26.10;99.90;;;;;;4998754;28;20261;-59
2023/06/26 11:34:35;;;;;;;7.00;2.30;;;26.50;99.90;;;;;;5000692;28;20812;-59
2023/06/26 11:37:03;;;;;;;4.73;2.00;;;26.90;99.90;;;;;;5001064;28;20265;-59
2023/06/26 11:39:31;;;;;;;6.70;2.10;;;27.00;99.90;;;;;;5003151;28;20352;-58
2023/06/26 11:42:01;;;;;;;5.80;2.10;;;27.60;99.90;;;;;;5000348;28;20243;-59
2023/06/26 11:44:32;;;;;;;6.53;1.93;;;27.80;99.90;;;;;;5000795;28;20236;-58
2023/06/26 11:47:00;;;;;;;6.00;1.87;;;27.70;99.90;;;;;;5003440;28;20669;-58
2023/06/26 11:49:31;;;;;;;7.27;2.00;;;27.40;99.90;;;;;;4999354;28;20278;-60
2023/06/26 11:52:00;;;;;;;5.17;2.13;;;26.80;99.90;;;;;;5000614;28;20232;-59
2023/06/26 11:54:28;;;;;;;5.67;2.10;;;26.60;99.90;;;;;;5002772;28;20348;-59
2023/06/26 11:56:58;;;;;;;5.97;2.17;;;26.70;99.90;;;;;;5002903;28;20320;-58
2023/06/26 11:59:34;;;;;;;7.80;2.10;;;26.80;99.90;;;;;;5002492;28;20909;-59
2023/06/26 12:02:06;;;;;;;7.60;2.13;;;27.10;99.90;;;;;;4997950;28;20330;-59
2023/06/26 12:04:36;;;;;;;5.47;1.80;;;26.70;99.90;;;;;;5001920;28;20308;-59
2023/06/26 12:07:08;;;;;;;5.60;2.20;;;26.20;99.90;;;;;;5000300;28;20754;-59
2023/06/26 12:09:41;;;;;;;8.37;2.10;;;25.80;99.90;;;;;;5000253;28;20294;-58
2023/06/26 12:12:10;;;;;;;8.17;2.50;;;25.60;99.90;;;;;;4998055;28;20227;-58
2023/06/26 12:14:38;;;;;;;6.20;2.33;;;25.50;99.90;;;;;;5001881;28;20298;-59
2023/06/26 12:17:11;;;;;;;8.57;2.30;;;25.50;99.90;;;;;;5004091;28;20681;-58
2023/06/26 12:19:40;;;;;;;6.20;2.07;;;25.70;99.90;;;;;;5003128;28;20229;-58
2023/06/26 12:22:10;;;;;;;4.97;2.10;;;25.60;99.90;;;;;;5001247;28;20308;-58
2023/06/26 12:24:39;;;;;;;6.53;2.10;;;25.50;99.90;;;;;;5004016;28;20279;-58
2023/06/26 12:27:12;;;;;;;6.53;2.33;;;25.60;99.90;;;;;;5004039;28;20611;-58
2023/06/26 12:29:42;;;;;;;4.40;1.90;;;25.40;99.90;;;;;;5006891;28;20707;-58
2023/06/26 12:32:14;;;;;;;6.13;2.13;;;25.60;99.90;;;;;;5002150;28;20231;-58
2023/06/26 12:34:42;;;;;;;3.73;1.70;;;25.60;99.90;;;;;;5005944;28;20235;-58
2023/06/26 12:37:13;;;;;;;8.57;2.40;;;25.80;99.90;;;;;;5003708;28;20240;-59
2023/06/26 12:39:49;;;;;;;4.93;1.80;;;25.90;99.90;;;;;;5005433;28;20229;-59
2023/06/26 12:42:18;;;;;;;7.47;1.90;;;25.60;99.90;;;;;;5002124;28;20301;-59
2023/06/26 12:44:46;;;;;;;6.47;2.07;;;25.70;99.90;;;;;;5004813;28;20224;-59
2023/06/26 12:47:15;;;;;;;3.83;1.97;;;25.60;99.90;;;;;;5003986;28;20762;-59
2023/06/26 12:49:45;;;;;;;4.67;1.80;;;25.20;99.90;;;;;;5005490;28;20700;-59
2023/06/26 12:52:15;;;;;;;4.80;1.73;;;25.00;99.90;;;;;;4998218;28;20322;-58
2023/06/26 12:54:46;;;;;;;6.43;2.13;;;24.90;99.90;;;;;;5004843;28;20667;-59
2023/06/26 12:57:15;;;;;;;5.60;1.90;;;24.90;99.90;;;;;;5005279;28;20314;-59